sensor_id;sensor_type;location;lat;lon;timestamp;temperature;humidity
48946;DHT22;34999;50.940;3.998;2022-11-02T00:01:38;13.00;99.90
48946;DHT22;34999;50.940;3.998;2022-11-02T00:04:09;13.00;99.90
48946;DHT22;34999;50.940;3.998;2022-11-02T00:06:38;12.90;99.90
48946;DHT22;34999;50.940;3.998;2022-11-02T00:09:07;13.00;99.90
48946;DHT22;34999;50.940;3.998;2022-11-02T00:11:36;13.00;99.90
48946;DHT22;34999;50.940;3.998;2022-11-02T00:14:04;13.00;99.90
48946;DHT22;34999;50.940;3.998;2022-11-02T00:16:33;12.90;99.90
48946;DHT22;34999;50.940;3.998;2022-11-02T00:19:04;13.00;99.90
48946;DHT22;34999;50.940;3.998;2022-11-02T00:21:35;12.90;99.90
48946;DHT22;34999;50.940;3.998;2022-11-02T00:24:05;12.90;99.90
48946;DHT22;34999;50.940;3.998;2022-11-02T00:26:35;12.90;99.90
48946;DHT22;34999;50.940;3.998;2022-11-02T00:29:04;12.80;99.90
48946;DHT22;34999;50.940;3.998;2022-11-02T00:31:32;12.80;99.90
48946;DHT22;34999;50.940;3.998;2022-11-02T00:34:01;12.80;99.90
48946;DHT22;34999;50.940;3.998;2022-11-02T00:36:29;12.80;99.90
48946;DHT22;34999;50.940;3.998;2022-11-02T00:38:59;12.80;99.90
48946;DHT22;34999;50.940;3.998;2022-11-02T00:41:30;12.80;99.90
48946;DHT22;34999;50.940;3.998;2022-11-02T00:43:58;12.70;99.90
48946;DHT22;34999;50.940;3.998;2022-11-02T00:46:26;12.60;99.90
48946;DHT22;34999;50.940;3.998;2022-11-02T00:48:55;12.60;99.90
48946;DHT22;34999;50.940;3.998;2022-11-02T00:51:23;12.60;99.90
48946;DHT22;34999;50.940;3.998;2022-11-02T00:53:52;12.50;99.90
48946;DHT22;34999;50.940;3.998;2022-11-02T00:56:21;12.50;99.90
48946;DHT22;34999;50.940;3.998;2022-11-02T00:58:49;12.60;99.90
48946;DHT22;34999;50.940;3.998;2022-11-02T01:01:18;12.60;99.90
48946;DHT22;34999;50.940;3.998;2022-11-02T01:03:47;12.60;99.90
48946;DHT22;34999;50.940;3.998;2022-11-02T01:06:15;12.70;99.90
48946;DHT22;34999;50.940;3.998;2022-11-02T01:08:44;12.60;99.90
48946;DHT22;34999;50.940;3.998;2022-11-02T01:11:14;12.60;99.90
48946;DHT22;34999;50.940;3.998;2022-11-02T01:13:44;12.50;99.90
48946;DHT22;34999;50.940;3.998;2022-11-02T01:16:13;12.60;99.90
48946;DHT22;34999;50.940;3.998;2022-11-02T01:18:41;12.60;99.90
48946;DHT22;34999;50.940;3.998;2022-11-02T01:21:10;12.60;99.90
48946;DHT22;34999;50.940;3.998;2022-11-02T01:23:39;12.60;99.90
48946;DHT22;34999;50.940;3.998;2022-11-02T01:26:09;12.70;99.90
48946;DHT22;34999;50.940;3.998;2022-11-02T01:28:38;12.60;99.90
48946;DHT22;34999;50.940;3.998;2022-11-02T01:31:08;12.60;99.90
48946;DHT22;34999;50.940;3.998;2022-11-02T01:33:42;12.60;99.90
48946;DHT22;34999;50.940;3.998;2022-11-02T01:36:11;12.50;99.90
48946;DHT22;34999;50.940;3.998;2022-11-02T01:38:40;12.50;99.90
48946;DHT22;34999;50.940;3.998;2022-11-02T01:41:10;12.50;99.90
48946;DHT22;34999;50.940;3.998;2022-11-02T01:43:41;12.50;99.90
48946;DHT22;34999;50.940;3.998;2022-11-02T01:46:15;12.50;99.90
48946;DHT22;34999;50.940;3.998;2022-11-02T01:48:48;12.60;99.90
48946;DHT22;34999;50.940;3.998;2022-11-02T01:51:20;12.60;99.90
48946;DHT22;34999;50.940;3.998;2022-11-02T01:53:50;12.70;99.90
48946;DHT22;34999;50.940;3.998;2022-11-02T01:56:21;12.70;99.90
48946;DHT22;34999;50.940;3.998;2022-11-02T01:58:55;12.70;99.90
48946;DHT22;34999;50.940;3.998;2022-11-02T02:01:27;12.60;99.90
48946;DHT22;34999;50.940;3.998;2022-11-02T02:03:56;12.60;99.90
48946;DHT22;34999;50.940;3.998;2022-11-02T02:06:25;12.50;99.90
48946;DHT22;34999;50.940;3.998;2022-11-02T02:08:54;12.50;99.90
48946;DHT22;34999;50.940;3.998;2022-11-02T02:11:26;12.40;99.90
48946;DHT22;34999;50.940;3.998;2022-11-02T02:13:57;12.40;99.90
48946;DHT22;34999;50.940;3.998;2022-11-02T02:16:45;12.40;99.90
48946;DHT22;34999;50.940;3.998;2022-11-02T02:19:29;12.30;99.90
48946;DHT22;34999;50.940;3.998;2022-11-02T02:25:10;12.20;99.90
48946;DHT22;34999;50.940;3.998;2022-11-02T02:28:02;12.20;99.90
48946;DHT22;34999;50.940;3.998;2022-11-02T02:30:37;12.20;99.90
48946;DHT22;34999;50.940;3.998;2022-11-02T02:33:10;12.20;99.90
48946;DHT22;34999;50.940;3.998;2022-11-02T02:35:44;12.20;99.90
48946;DHT22;34999;50.940;3.998;2022-11-02T02:38:16;12.20;99.90
48946;DHT22;34999;50.940;3.998;2022-11-02T02:40:51;12.20;99.90
48946;DHT22;34999;50.940;3.998;2022-11-02T02:43:28;12.30;99.90
48946;DHT22;34999;50.940;3.998;2022-11-02T02:46:02;12.30;99.90
48946;DHT22;34999;50.940;3.998;2022-11-02T02:48:33;12.30;99.90
48946;DHT22;34999;50.940;3.998;2022-11-02T02:51:05;12.20;99.90
48946;DHT22;34999;50.940;3.998;2022-11-02T02:53:38;12.20;99.90
48946;DHT22;34999;50.940;3.998;2022-11-02T02:56:09;12.20;99.90
48946;DHT22;34999;50.940;3.998;2022-11-02T02:58:44;12.10;99.90
48946;DHT22;34999;50.940;3.998;2022-11-02T03:01:17;12.10;99.90
48946;DHT22;34999;50.940;3.998;2022-11-02T03:03:46;12.10;99.90
48946;DHT22;34999;50.940;3.998;2022-11-02T03:06:19;12.10;99.90
48946;DHT22;34999;50.940;3.998;2022-11-02T03:08:55;12.20;99.90
48946;DHT22;34999;50.940;3.998;2022-11-02T03:11:26;12.20;99.90
48946;DHT22;34999;50.940;3.998;2022-11-02T03:14:17;12.20;99.90
48946;DHT22;34999;50.940;3.998;2022-11-02T03:17:05;12.10;99.90
48946;DHT22;34999;50.940;3.998;2022-11-02T03:19:44;12.10;99.90
48946;DHT22;34999;50.940;3.998;2022-11-02T03:22:21;12.10;99.90
48946;DHT22;34999;50.940;3.998;2022-11-02T03:24:57;12.00;99.90
48946;DHT22;34999;50.940;3.998;2022-11-02T03:27:36;12.00;99.90
48946;DHT22;34999;50.940;3.998;2022-11-02T03:30:11;12.00;99.90
48946;DHT22;34999;50.940;3.998;2022-11-02T03:32:48;12.00;99.90
48946;DHT22;34999;50.940;3.998;2022-11-02T03:35:21;12.00;99.90
48946;DHT22;34999;50.940;3.998;2022-11-02T03:37:57;11.90;99.90
48946;DHT22;34999;50.940;3.998;2022-11-02T03:40:30;11.90;99.90
48946;DHT22;34999;50.940;3.998;2022-11-02T03:43:02;11.80;99.90
48946;DHT22;34999;50.940;3.998;2022-11-02T03:45:35;11.90;99.90
48946;DHT22;34999;50.940;3.998;2022-11-02T03:48:08;11.90;99.90
48946;DHT22;34999;50.940;3.998;2022-11-02T03:50:42;11.90;99.90
48946;DHT22;34999;50.940;3.998;2022-11-02T03:53:15;11.90;99.90
48946;DHT22;34999;50.940;3.998;2022-11-02T03:55:49;12.00;99.90
48946;DHT22;34999;50.940;3.998;2022-11-02T03:58:19;12.00;99.90
48946;DHT22;34999;50.940;3.998;2022-11-02T04:00:51;11.90;99.90
48946;DHT22;34999;50.940;3.998;2022-11-02T04:03:22;11.90;99.90
48946;DHT22;34999;50.940;3.998;2022-11-02T04:05:51;11.90;99.90
48946;DHT22;34999;50.940;3.998;2022-11-02T04:08:24;11.80;99.90
48946;DHT22;34999;50.940;3.998;2022-11-02T04:10:55;11.80;99.90
48946;DHT22;34999;50.940;3.998;2022-11-02T04:13:41;11.80;99.90
48946;DHT22;34999;50.940;3.998;2022-11-02T04:16:27;11.80;99.90
48946;DHT22;34999;50.940;3.998;2022-11-02T04:18:56;11.80;99.90
48946;DHT22;34999;50.940;3.998;2022-11-02T04:21:41;11.80;99.90
48946;DHT22;34999;50.940;3.998;2022-11-02T04:24:31;11.70;99.90
48946;DHT22;34999;50.940;3.998;2022-11-02T04:27:16;11.70;99.90
48946;DHT22;34999;50.940;3.998;2022-11-02T04:29:47;11.60;99.90
48946;DHT22;34999;50.940;3.998;2022-11-02T04:32:16;11.60;99.90
48946;DHT22;34999;50.940;3.998;2022-11-02T04:35:07;11.60;99.90
48946;DHT22;34999;50.940;3.998;2022-11-02T04:37:37;11.50;99.90
48946;DHT22;34999;50.940;3.998;2022-11-02T04:40:23;11.50;99.90
48946;DHT22;34999;50.940;3.998;2022-11-02T04:42:52;11.50;99.90
48946;DHT22;34999;50.940;3.998;2022-11-02T04:45:20;11.40;99.90
48946;DHT22;34999;50.940;3.998;2022-11-02T04:47:50;11.40;99.90
48946;DHT22;34999;50.940;3.998;2022-11-02T04:50:18;11.40;99.90
48946;DHT22;34999;50.940;3.998;2022-11-02T04:52:54;11.30;99.90
48946;DHT22;34999;50.940;3.998;2022-11-02T04:55:24;11.30;99.90
48946;DHT22;34999;50.940;3.998;2022-11-02T04:57:52;11.30;99.90
48946;DHT22;34999;50.940;3.998;2022-11-02T05:00:21;11.20;99.90
48946;DHT22;34999;50.940;3.998;2022-11-02T05:03:09;11.30;99.90
48946;DHT22;34999;50.940;3.998;2022-11-02T05:05:38;11.20;99.90
48946;DHT22;34999;50.940;3.998;2022-11-02T05:08:07;11.10;99.90
48946;DHT22;34999;50.940;3.998;2022-11-02T05:10:35;11.10;99.90
48946;DHT22;34999;50.940;3.998;2022-11-02T05:13:03;11.10;99.90
48946;DHT22;34999;50.940;3.998;2022-11-02T05:15:32;11.10;99.90
48946;DHT22;34999;50.940;3.998;2022-11-02T05:18:01;11.10;99.90
48946;DHT22;34999;50.940;3.998;2022-11-02T05:20:32;11.00;99.90
48946;DHT22;34999;50.940;3.998;2022-11-02T05:23:00;11.00;99.90
48946;DHT22;34999;50.940;3.998;2022-11-02T05:25:29;11.00;99.90
48946;DHT22;34999;50.940;3.998;2022-11-02T05:27:57;10.90;99.90
48946;DHT22;34999;50.940;3.998;2022-11-02T05:30:25;10.80;99.90
48946;DHT22;34999;50.940;3.998;2022-11-02T05:32:55;10.90;99.90
48946;DHT22;34999;50.940;3.998;2022-11-02T05:35:23;10.80;99.90
48946;DHT22;34999;50.940;3.998;2022-11-02T05:37:55;10.80;99.90
48946;DHT22;34999;50.940;3.998;2022-11-02T05:40:23;10.80;99.90
48946;DHT22;34999;50.940;3.998;2022-11-02T05:42:57;10.70;99.90
48946;DHT22;34999;50.940;3.998;2022-11-02T05:45:27;10.70;99.90
48946;DHT22;34999;50.940;3.998;2022-11-02T05:47:55;10.70;99.90
48946;DHT22;34999;50.940;3.998;2022-11-02T05:50:23;10.60;99.90
48946;DHT22;34999;50.940;3.998;2022-11-02T05:52:52;10.70;99.90
48946;DHT22;34999;50.940;3.998;2022-11-02T05:55:21;10.60;99.90
48946;DHT22;34999;50.940;3.998;2022-11-02T05:57:51;10.60;99.90
48946;DHT22;34999;50.940;3.998;2022-11-02T06:00:21;10.60;99.90
48946;DHT22;34999;50.940;3.998;2022-11-02T06:02:55;10.60;99.90
48946;DHT22;34999;50.940;3.998;2022-11-02T06:05:24;10.60;99.90
48946;DHT22;34999;50.940;3.998;2022-11-02T06:07:56;10.50;99.90
48946;DHT22;34999;50.940;3.998;2022-11-02T06:10:27;10.50;99.90
48946;DHT22;34999;50.940;3.998;2022-11-02T06:12:56;10.50;99.90
48946;DHT22;34999;50.940;3.998;2022-11-02T06:15:25;10.50;99.90
48946;DHT22;34999;50.940;3.998;2022-11-02T06:17:53;10.50;99.90
48946;DHT22;34999;50.940;3.998;2022-11-02T06:20:22;10.50;99.90
48946;DHT22;34999;50.940;3.998;2022-11-02T06:22:50;10.40;99.90
48946;DHT22;34999;50.940;3.998;2022-11-02T06:25:18;10.30;99.90
48946;DHT22;34999;50.940;3.998;2022-11-02T06:27:52;10.30;99.90
48946;DHT22;34999;50.940;3.998;2022-11-02T06:30:22;10.30;99.90
48946;DHT22;34999;50.940;3.998;2022-11-02T06:32:51;10.30;99.90
48946;DHT22;34999;50.940;3.998;2022-11-02T06:35:21;10.20;99.90
48946;DHT22;34999;50.940;3.998;2022-11-02T06:37:49;10.20;99.90
48946;DHT22;34999;50.940;3.998;2022-11-02T06:40:18;10.20;99.90
48946;DHT22;34999;50.940;3.998;2022-11-02T06:42:58;10.20;99.90
48946;DHT22;34999;50.940;3.998;2022-11-02T06:45:43;10.20;99.90
48946;DHT22;34999;50.940;3.998;2022-11-02T06:48:11;10.20;99.90
48946;DHT22;34999;50.940;3.998;2022-11-02T06:50:39;10.10;99.90
48946;DHT22;34999;50.940;3.998;2022-11-02T06:53:08;10.10;99.90
48946;DHT22;34999;50.940;3.998;2022-11-02T06:55:36;10.10;99.90
48946;DHT22;34999;50.940;3.998;2022-11-02T06:58:08;10.10;99.90
48946;DHT22;34999;50.940;3.998;2022-11-02T07:00:37;10.10;99.90
48946;DHT22;34999;50.940;3.998;2022-11-02T07:03:08;10.10;99.90
48946;DHT22;34999;50.940;3.998;2022-11-02T07:05:36;10.10;99.90
48946;DHT22;34999;50.940;3.998;2022-11-02T07:08:05;10.10;99.90
48946;DHT22;34999;50.940;3.998;2022-11-02T07:10:33;10.10;99.90
48946;DHT22;34999;50.940;3.998;2022-11-02T07:13:02;10.10;99.90
48946;DHT22;34999;50.940;3.998;2022-11-02T07:15:32;10.10;99.90
48946;DHT22;34999;50.940;3.998;2022-11-02T07:18:01;10.10;99.90
48946;DHT22;34999;50.940;3.998;2022-11-02T07:20:29;10.20;99.90
48946;DHT22;34999;50.940;3.998;2022-11-02T07:22:59;10.20;99.90
48946;DHT22;34999;50.940;3.998;2022-11-02T07:25:30;10.30;99.90
48946;DHT22;34999;50.940;3.998;2022-11-02T07:27:59;10.30;99.90
48946;DHT22;34999;50.940;3.998;2022-11-02T07:30:29;10.30;99.90
48946;DHT22;34999;50.940;3.998;2022-11-02T07:33:00;10.30;99.90
48946;DHT22;34999;50.940;3.998;2022-11-02T07:35:29;10.40;99.90
48946;DHT22;34999;50.940;3.998;2022-11-02T07:38:01;10.50;99.90
48946;DHT22;34999;50.940;3.998;2022-11-02T07:40:31;10.70;99.90
48946;DHT22;34999;50.940;3.998;2022-11-02T07:42:59;10.90;99.90
48946;DHT22;34999;50.940;3.998;2022-11-02T07:45:28;11.00;99.90
48946;DHT22;34999;50.940;3.998;2022-11-02T07:47:58;11.10;99.90
48946;DHT22;34999;50.940;3.998;2022-11-02T07:50:26;11.10;99.90
48946;DHT22;34999;50.940;3.998;2022-11-02T07:52:56;11.10;99.90
48946;DHT22;34999;50.940;3.998;2022-11-02T07:55:27;11.20;99.90
48946;DHT22;34999;50.940;3.998;2022-11-02T07:57:56;11.30;99.90
48946;DHT22;34999;50.940;3.998;2022-11-02T08:00:26;11.40;99.90
48946;DHT22;34999;50.940;3.998;2022-11-02T08:03:00;11.50;99.90
48946;DHT22;34999;50.940;3.998;2022-11-02T08:05:32;11.40;99.90
48946;DHT22;34999;50.940;3.998;2022-11-02T08:08:02;11.40;99.90
48946;DHT22;34999;50.940;3.998;2022-11-02T08:10:33;11.40;99.90
48946;DHT22;34999;50.940;3.998;2022-11-02T08:13:06;11.40;99.90
48946;DHT22;34999;50.940;3.998;2022-11-02T08:15:35;11.30;99.90
48946;DHT22;34999;50.940;3.998;2022-11-02T08:18:06;11.20;99.90
48946;DHT22;34999;50.940;3.998;2022-11-02T08:20:36;11.20;99.90
48946;DHT22;34999;50.940;3.998;2022-11-02T08:23:05;11.20;99.90
48946;DHT22;34999;50.940;3.998;2022-11-02T08:25:34;11.30;99.90
48946;DHT22;34999;50.940;3.998;2022-11-02T08:28:04;11.40;99.90
48946;DHT22;34999;50.940;3.998;2022-11-02T08:30:33;11.40;99.90
48946;DHT22;34999;50.940;3.998;2022-11-02T08:33:02;11.30;99.90
48946;DHT22;34999;50.940;3.998;2022-11-02T08:35:33;11.30;99.90
48946;DHT22;34999;50.940;3.998;2022-11-02T08:38:03;11.40;99.90
48946;DHT22;34999;50.940;3.998;2022-11-02T08:40:32;11.40;99.90
48946;DHT22;34999;50.940;3.998;2022-11-02T08:43:02;11.40;99.90
48946;DHT22;34999;50.940;3.998;2022-11-02T08:45:32;11.40;99.90
48946;DHT22;34999;50.940;3.998;2022-11-02T08:48:21;11.40;99.90
48946;DHT22;34999;50.940;3.998;2022-11-02T08:50:51;11.40;99.90
48946;DHT22;34999;50.940;3.998;2022-11-02T08:53:19;11.50;99.90
48946;DHT22;34999;50.940;3.998;2022-11-02T08:55:47;11.60;99.90
48946;DHT22;34999;50.940;3.998;2022-11-02T08:58:16;11.60;99.90
48946;DHT22;34999;50.940;3.998;2022-11-02T09:00:44;11.70;99.90
48946;DHT22;34999;50.940;3.998;2022-11-02T09:03:14;11.80;99.90
48946;DHT22;34999;50.940;3.998;2022-11-02T09:05:56;12.00;99.90
48946;DHT22;34999;50.940;3.998;2022-11-02T09:08:25;12.20;99.90
48946;DHT22;34999;50.940;3.998;2022-11-02T09:10:57;12.30;99.90
48946;DHT22;34999;50.940;3.998;2022-11-02T09:13:26;12.40;99.90
48946;DHT22;34999;50.940;3.998;2022-11-02T09:15:56;12.50;99.90
48946;DHT22;34999;50.940;3.998;2022-11-02T09:18:25;12.70;99.90
48946;DHT22;34999;50.940;3.998;2022-11-02T09:20:55;12.80;99.90
48946;DHT22;34999;50.940;3.998;2022-11-02T09:23:23;13.00;99.90
48946;DHT22;34999;50.940;3.998;2022-11-02T09:25:52;13.10;99.90
48946;DHT22;34999;50.940;3.998;2022-11-02T09:28:21;13.20;99.90
48946;DHT22;34999;50.940;3.998;2022-11-02T09:30:49;13.40;99.90
48946;DHT22;34999;50.940;3.998;2022-11-02T09:33:18;13.50;99.90
48946;DHT22;34999;50.940;3.998;2022-11-02T09:35:48;13.50;99.90
48946;DHT22;34999;50.940;3.998;2022-11-02T09:38:18;13.60;99.90
48946;DHT22;34999;50.940;3.998;2022-11-02T09:40:53;13.50;99.90
48946;DHT22;34999;50.940;3.998;2022-11-02T09:43:38;13.60;99.90
48946;DHT22;34999;50.940;3.998;2022-11-02T09:46:10;13.60;99.90
48946;DHT22;34999;50.940;3.998;2022-11-02T09:48:41;13.70;99.90
48946;DHT22;34999;50.940;3.998;2022-11-02T09:51:13;13.90;99.90
48946;DHT22;34999;50.940;3.998;2022-11-02T09:53:50;14.00;99.90
48946;DHT22;34999;50.940;3.998;2022-11-02T09:56:19;14.20;99.90
48946;DHT22;34999;50.940;3.998;2022-11-02T09:58:52;14.30;99.90
48946;DHT22;34999;50.940;3.998;2022-11-02T10:01:42;14.50;99.90
48946;DHT22;34999;50.940;3.998;2022-11-02T10:04:35;14.60;99.90
48946;DHT22;34999;50.940;3.998;2022-11-02T10:07:20;14.60;99.90
48946;DHT22;34999;50.940;3.998;2022-11-02T10:09:53;14.50;99.90
48946;DHT22;34999;50.940;3.998;2022-11-02T10:12:27;14.50;99.90
48946;DHT22;34999;50.940;3.998;2022-11-02T10:15:02;14.60;99.90
48946;DHT22;34999;50.940;3.998;2022-11-02T10:17:35;14.80;99.90
48946;DHT22;34999;50.940;3.998;2022-11-02T10:20:09;14.90;99.90
48946;DHT22;34999;50.940;3.998;2022-11-02T10:22:44;14.90;99.90
48946;DHT22;34999;50.940;3.998;2022-11-02T10:25:16;14.90;99.90
48946;DHT22;34999;50.940;3.998;2022-11-02T10:27:47;15.00;99.90
48946;DHT22;34999;50.940;3.998;2022-11-02T10:30:19;15.10;99.90
48946;DHT22;34999;50.940;3.998;2022-11-02T10:32:50;15.00;99.90
48946;DHT22;34999;50.940;3.998;2022-11-02T10:35:29;15.20;99.90
48946;DHT22;34999;50.940;3.998;2022-11-02T10:38:27;15.40;99.90
48946;DHT22;34999;50.940;3.998;2022-11-02T10:41:11;15.40;99.90
48946;DHT22;34999;50.940;3.998;2022-11-02T10:44:00;15.20;99.90
48946;DHT22;34999;50.940;3.998;2022-11-02T10:46:42;14.90;99.90
48946;DHT22;34999;50.940;3.998;2022-11-02T10:49:28;14.60;99.90
48946;DHT22;34999;50.940;3.998;2022-11-02T10:52:00;14.50;99.90
48946;DHT22;34999;50.940;3.998;2022-11-02T10:54:28;14.50;99.90
48946;DHT22;34999;50.940;3.998;2022-11-02T10:57:09;14.60;99.90
48946;DHT22;34999;50.940;3.998;2022-11-02T10:59:39;14.70;99.90
48946;DHT22;34999;50.940;3.998;2022-11-02T11:02:11;14.80;99.90
48946;DHT22;34999;50.940;3.998;2022-11-02T11:04:41;14.80;99.90
48946;DHT22;34999;50.940;3.998;2022-11-02T11:07:15;14.90;99.90
48946;DHT22;34999;50.940;3.998;2022-11-02T11:09:50;14.80;99.90
48946;DHT22;34999;50.940;3.998;2022-11-02T11:12:25;14.80;99.90
48946;DHT22;34999;50.940;3.998;2022-11-02T11:14:57;15.20;99.90
48946;DHT22;34999;50.940;3.998;2022-11-02T11:17:46;15.60;99.90
48946;DHT22;34999;50.940;3.998;2022-11-02T11:20:36;15.70;99.90
48946;DHT22;34999;50.940;3.998;2022-11-02T11:23:23;15.90;99.90
48946;DHT22;34999;50.940;3.998;2022-11-02T11:25:57;16.20;99.90
48946;DHT22;34999;50.940;3.998;2022-11-02T11:28:30;16.30;99.90
48946;DHT22;34999;50.940;3.998;2022-11-02T11:31:16;16.40;99.90
48946;DHT22;34999;50.940;3.998;2022-11-02T11:33:50;16.30;99.90
48946;DHT22;34999;50.940;3.998;2022-11-02T11:36:22;16.40;99.90
48946;DHT22;34999;50.940;3.998;2022-11-02T11:38:54;16.40;99.90
48946;DHT22;34999;50.940;3.998;2022-11-02T11:41:23;16.40;99.90
48946;DHT22;34999;50.940;3.998;2022-11-02T11:43:53;16.50;99.90
48946;DHT22;34999;50.940;3.998;2022-11-02T11:46:22;16.50;99.90
48946;DHT22;34999;50.940;3.998;2022-11-02T11:48:52;16.40;99.90
48946;DHT22;34999;50.940;3.998;2022-11-02T11:51:27;16.30;99.90
48946;DHT22;34999;50.940;3.998;2022-11-02T11:54:17;16.30;99.90
48946;DHT22;34999;50.940;3.998;2022-11-02T11:56:47;16.20;99.90
48946;DHT22;34999;50.940;3.998;2022-11-02T11:59:44;16.40;99.90
48946;DHT22;34999;50.940;3.998;2022-11-02T12:02:21;16.70;99.90
48946;DHT22;34999;50.940;3.998;2022-11-02T12:04:51;16.70;99.90
48946;DHT22;34999;50.940;3.998;2022-11-02T12:07:56;16.70;99.90
48946;DHT22;34999;50.940;3.998;2022-11-02T12:10:39;16.60;99.90
48946;DHT22;34999;50.940;3.998;2022-11-02T12:13:18;16.50;99.90
48946;DHT22;34999;50.940;3.998;2022-11-02T12:16:06;16.40;99.90
48946;DHT22;34999;50.940;3.998;2022-11-02T12:18:56;16.30;99.90
48946;DHT22;34999;50.940;3.998;2022-11-02T12:21:38;16.20;99.90
48946;DHT22;34999;50.940;3.998;2022-11-02T12:24:22;16.00;99.90
48946;DHT22;34999;50.940;3.998;2022-11-02T12:27:02;15.90;99.90
48946;DHT22;34999;50.940;3.998;2022-11-02T12:33:02;16.20;99.90
48946;DHT22;34999;50.940;3.998;2022-11-02T12:35:59;16.40;99.90
48946;DHT22;34999;50.940;3.998;2022-11-02T12:38:51;16.50;99.90
48946;DHT22;34999;50.940;3.998;2022-11-02T12:41:33;16.50;99.90
48946;DHT22;34999;50.940;3.998;2022-11-02T12:44:25;16.50;99.90
48946;DHT22;34999;50.940;3.998;2022-11-02T12:47:04;16.60;99.90
48946;DHT22;34999;50.940;3.998;2022-11-02T12:49:43;16.70;99.90
48946;DHT22;34999;50.940;3.998;2022-11-02T12:52:27;16.60;99.90
48946;DHT22;34999;50.940;3.998;2022-11-02T12:54:58;16.50;99.90
48946;DHT22;34999;50.940;3.998;2022-11-02T12:57:30;16.60;99.90
48946;DHT22;34999;50.940;3.998;2022-11-02T13:00:04;16.60;99.90
48946;DHT22;34999;50.940;3.998;2022-11-02T13:02:40;16.60;99.90
48946;DHT22;34999;50.940;3.998;2022-11-02T13:05:15;16.60;99.90
48946;DHT22;34999;50.940;3.998;2022-11-02T13:07:48;16.70;99.90
48946;DHT22;34999;50.940;3.998;2022-11-02T13:10:22;16.60;99.90
48946;DHT22;34999;50.940;3.998;2022-11-02T13:12:57;16.40;99.90
48946;DHT22;34999;50.940;3.998;2022-11-02T13:15:26;16.30;99.90
48946;DHT22;34999;50.940;3.998;2022-11-02T13:17:59;16.30;99.90
48946;DHT22;34999;50.940;3.998;2022-11-02T13:20:35;16.30;99.90
48946;DHT22;34999;50.940;3.998;2022-11-02T13:23:15;16.20;99.90
48946;DHT22;34999;50.940;3.998;2022-11-02T13:25:47;16.10;99.90
48946;DHT22;34999;50.940;3.998;2022-11-02T13:28:25;15.90;99.90
48946;DHT22;34999;50.940;3.998;2022-11-02T13:30:58;15.80;99.90
48946;DHT22;34999;50.940;3.998;2022-11-02T13:33:35;15.80;99.90
48946;DHT22;34999;50.940;3.998;2022-11-02T13:36:06;15.80;99.90
48946;DHT22;34999;50.940;3.998;2022-11-02T13:38:39;15.70;99.90
48946;DHT22;34999;50.940;3.998;2022-11-02T13:41:31;15.80;99.90
48946;DHT22;34999;50.940;3.998;2022-11-02T13:47:28;15.80;99.90
48946;DHT22;34999;50.940;3.998;2022-11-02T13:50:01;15.60;99.90
48946;DHT22;34999;50.940;3.998;2022-11-02T13:52:37;15.70;99.90
48946;DHT22;34999;50.940;3.998;2022-11-02T13:55:12;15.80;99.90
48946;DHT22;34999;50.940;3.998;2022-11-02T13:57:45;15.70;99.90
48946;DHT22;34999;50.940;3.998;2022-11-02T14:00:30;15.70;99.90
48946;DHT22;34999;50.940;3.998;2022-11-02T14:03:06;15.70;99.90
48946;DHT22;34999;50.940;3.998;2022-11-02T14:05:43;15.60;99.90
48946;DHT22;34999;50.940;3.998;2022-11-02T14:08:21;15.50;99.90
48946;DHT22;34999;50.940;3.998;2022-11-02T14:11:23;15.60;99.90
48946;DHT22;34999;50.940;3.998;2022-11-02T14:14:15;15.50;99.90
48946;DHT22;34999;50.940;3.998;2022-11-02T14:16:55;15.40;99.90
48946;DHT22;34999;50.940;3.998;2022-11-02T14:19:31;15.40;99.90
48946;DHT22;34999;50.940;3.998;2022-11-02T14:22:09;15.40;99.90
48946;DHT22;34999;50.940;3.998;2022-11-02T14:24:54;15.30;99.90
48946;DHT22;34999;50.940;3.998;2022-11-02T14:27:29;15.40;99.90
48946;DHT22;34999;50.940;3.998;2022-11-02T14:29:58;15.40;99.90
48946;DHT22;34999;50.940;3.998;2022-11-02T14:32:47;15.30;99.90
48946;DHT22;34999;50.940;3.998;2022-11-02T14:35:37;15.30;99.90
48946;DHT22;34999;50.940;3.998;2022-11-02T14:38:25;15.30;99.90
48946;DHT22;34999;50.940;3.998;2022-11-02T14:41:07;15.30;99.90
48946;DHT22;34999;50.940;3.998;2022-11-02T14:43:57;15.30;99.90
48946;DHT22;34999;50.940;3.998;2022-11-02T14:46:38;15.20;99.90
48946;DHT22;34999;50.940;3.998;2022-11-02T14:49:19;15.20;99.90
48946;DHT22;34999;50.940;3.998;2022-11-02T14:52:02;15.10;99.90
48946;DHT22;34999;50.940;3.998;2022-11-02T14:54:37;15.10;99.90
48946;DHT22;34999;50.940;3.998;2022-11-02T14:57:18;15.10;99.90
48946;DHT22;34999;50.940;3.998;2022-11-02T14:59:53;15.10;99.90
48946;DHT22;34999;50.940;3.998;2022-11-02T15:02:26;15.00;99.90
48946;DHT22;34999;50.940;3.998;2022-11-02T15:04:57;15.00;99.90
48946;DHT22;34999;50.940;3.998;2022-11-02T15:07:31;15.00;99.90
48946;DHT22;34999;50.940;3.998;2022-11-02T15:10:04;15.00;99.90
48946;DHT22;34999;50.940;3.998;2022-11-02T15:12:38;14.90;99.90
48946;DHT22;34999;50.940;3.998;2022-11-02T15:15:31;14.90;99.90
48946;DHT22;34999;50.940;3.998;2022-11-02T15:18:31;14.80;99.90
48946;DHT22;34999;50.940;3.998;2022-11-02T15:21:23;14.70;99.90
48946;DHT22;34999;50.940;3.998;2022-11-02T15:24:14;14.70;99.90
48946;DHT22;34999;50.940;3.998;2022-11-02T15:26:49;14.70;99.90
48946;DHT22;34999;50.940;3.998;2022-11-02T15:29:35;14.60;99.90
48946;DHT22;34999;50.940;3.998;2022-11-02T15:32:07;14.60;99.90
48946;DHT22;34999;50.940;3.998;2022-11-02T15:34:44;14.50;99.90
48946;DHT22;34999;50.940;3.998;2022-11-02T15:37:16;14.40;99.90
48946;DHT22;34999;50.940;3.998;2022-11-02T15:39:49;14.40;99.90
48946;DHT22;34999;50.940;3.998;2022-11-02T15:42:27;14.30;99.90
48946;DHT22;34999;50.940;3.998;2022-11-02T15:45:20;14.30;99.90
48946;DHT22;34999;50.940;3.998;2022-11-02T15:48:21;14.30;99.90
48946;DHT22;34999;50.940;3.998;2022-11-02T15:50:58;14.20;99.90
48946;DHT22;34999;50.940;3.998;2022-11-02T15:53:58;14.10;99.90
48946;DHT22;34999;50.940;3.998;2022-11-02T15:56:41;14.00;99.90
48946;DHT22;34999;50.940;3.998;2022-11-02T16:02:16;13.90;99.90
48946;DHT22;34999;50.940;3.998;2022-11-02T16:04:46;13.90;99.90
48946;DHT22;34999;50.940;3.998;2022-11-02T16:07:16;13.90;99.90
48946;DHT22;34999;50.940;3.998;2022-11-02T16:09:45;13.80;99.90
48946;DHT22;34999;50.940;3.998;2022-11-02T16:12:16;13.80;99.90
48946;DHT22;34999;50.940;3.998;2022-11-02T16:14:51;13.70;99.90
48946;DHT22;34999;50.940;3.998;2022-11-02T16:17:24;13.60;99.90
48946;DHT22;34999;50.940;3.998;2022-11-02T16:20:08;13.60;99.90
48946;DHT22;34999;50.940;3.998;2022-11-02T16:22:37;13.50;99.90
48946;DHT22;34999;50.940;3.998;2022-11-02T16:25:10;13.50;99.90
48946;DHT22;34999;50.940;3.998;2022-11-02T16:27:39;13.40;99.90